Time;durP1;ratioP1;P1;durP2;ratioP2;P2;SDS_P1;SDS_P2;PMS_P1;PMS_P2;Temp;Humidity;BMP_temperature;BMP_pressure;BME280_temperature;BME280_humidity;BME280_pressure;Samples;Min_cycle;Max_cycle;Signal;HPM_P1;HPM_P2
2022/10/20 00:00:19;;;;;;;20.50;16.93;;;;;;;11.25;100.00;97043.41;5094944;28;20659;-55
2022/10/20 00:02:45;;;;;;;20.93;16.30;;;;;;;11.31;100.00;97036.47;5094370;28;20168;-56
2022/10/20 00:05:10;;;;;;;21.53;17.00;;;;;;;11.24;100.00;97039.19;5094253;28;20256;-57
2022/10/20 00:07:36;;;;;;;20.67;17.33;;;;;;;11.27;100.00;97040.53;5094137;28;20241;-57
2022/10/20 00:10:01;;;;;;;19.67;17.10;;;;;;;11.29;100.00;97038.50;5094826;28;20189;-55
2022/10/20 00:12:27;;;;;;;22.23;18.07;;;;;;;11.25;100.00;97035.53;5094679;28;20176;-54
2022/10/20 00:14:52;;;;;;;21.13;18.67;;;;;;;11.31;100.00;97035.66;5094701;28;20176;-55
2022/10/20 00:17:17;;;;;;;20.33;17.67;;;;;;;11.28;100.00;97034.28;5093626;28;20200;-55
2022/10/20 00:19:46;;;;;;;21.03;18.83;;;;;;;11.29;100.00;97025.38;5094347;28;20181;-53
2022/10/20 00:22:12;;;;;;;23.13;18.67;;;;;;;11.26;100.00;97023.19;5076158;28;20179;-56
2022/10/20 00:24:37;;;;;;;21.53;17.90;;;;;;;11.29;100.00;97021.94;5093297;28;20197;-53
2022/10/20 00:27:03;;;;;;;24.60;22.03;;;;;;;11.29;100.00;97016.69;5093793;28;20747;-57
2022/10/20 00:29:28;;;;;;;21.80;18.77;;;;;;;11.24;100.00;97020.81;5094380;28;20644;-56
2022/10/20 00:31:53;;;;;;;22.10;19.70;;;;;;;11.26;100.00;97021.38;5093958;28;20191;-56
2022/10/20 00:34:19;;;;;;;24.47;18.53;;;;;;;11.26;100.00;97021.38;5094350;28;20176;-58
2022/10/20 00:36:44;;;;;;;20.80;18.27;;;;;;;11.30;100.00;97026.97;5093710;28;20330;-57
2022/10/20 00:39:10;;;;;;;20.93;18.50;;;;;;;11.20;100.00;97024.88;5094253;28;20204;-56
2022/10/20 00:41:35;;;;;;;21.30;19.00;;;;;;;11.24;100.00;97014.75;5074777;28;20219;-58
2022/10/20 00:44:40;;;;;;;24.23;19.17;;;;;;;11.24;100.00;97017.38;5071910;28;20629;-53
2022/10/20 00:47:10;;;;;;;21.67;19.10;;;;;;;11.21;100.00;97017.81;5085226;28;20215;-59
2022/10/20 00:49:36;;;;;;;21.60;18.30;;;;;;;11.25;100.00;97022.41;5092782;28;20176;-58
2022/10/20 00:52:02;;;;;;;25.33;20.03;;;;;;;11.21;100.00;97021.25;5066676;28;20173;-56
2022/10/20 00:54:27;;;;;;;23.73;18.67;;;;;;;11.15;100.00;97016.88;5092153;28;20214;-56
2022/10/20 00:56:55;;;;;;;23.00;20.50;;;;;;;11.22;100.00;97016.78;5093311;28;20345;-57
2022/10/20 00:59:27;;;;;;;22.90;20.33;;;;;;;11.15;100.00;97003.78;5088150;28;20205;-58
2022/10/20 01:01:53;;;;;;;23.97;19.83;;;;;;;11.10;100.00;96993.16;5074006;28;20249;-57
2022/10/20 01:04:19;;;;;;;25.73;19.17;;;;;;;11.04;100.00;96990.63;5086371;28;20276;-55
2022/10/20 01:06:44;;;;;;;21.17;16.90;;;;;;;11.01;100.00;96989.25;5072733;28;20331;-57
2022/10/20 01:09:10;;;;;;;19.47;16.17;;;;;;;10.95;100.00;96974.41;5073666;28;20165;-56
2022/10/20 01:11:53;;;;;;;18.90;15.60;;;;;;;10.95;100.00;96969.19;5073478;28;20627;-55
2022/10/20 01:14:38;;;;;;;18.03;15.63;;;;;;;10.89;100.00;96964.81;5067731;28;20180;-57
2022/10/20 01:17:16;;;;;;;35.07;17.20;;;;;;;10.87;100.00;96961.63;5072521;28;20221;-58
2022/10/20 01:20:17;;;;;;;20.83;17.47;;;;;;;10.89;100.00;96970.06;5088745;28;20181;-57
2022/10/20 01:22:45;;;;;;;23.83;18.80;;;;;;;10.82;100.00;96962.28;5085343;28;20177;-55
2022/10/20 01:25:25;;;;;;;25.27;18.17;;;;;;;10.93;100.00;96959.91;5069659;28;20532;-55
2022/10/20 01:28:19;;;;;;;19.50;17.40;;;;;;;10.90;100.00;96961.19;5072945;28;20212;-54
2022/10/20 01:30:53;;;;;;;19.00;16.97;;;;;;;10.80;100.00;96960.94;5080505;28;20181;-56
2022/10/20 01:33:34;;;;;;;21.50;17.83;;;;;;;10.87;100.00;96966.84;5075641;28;20268;-58
2022/10/20 01:36:05;;;;;;;20.60;18.27;;;;;;;10.80;100.00;96961.72;5092875;28;20248;-57
2022/10/20 01:38:42;;;;;;;24.33;17.77;;;;;;;10.84;100.00;96947.16;5079432;28;20177;-55
2022/10/20 01:41:10;;;;;;;22.23;18.43;;;;;;;10.81;100.00;96947.56;5072732;28;20176;-56
2022/10/20 01:43:38;;;;;;;22.07;18.73;;;;;;;10.89;100.00;96953.53;5086092;28;20231;-57
2022/10/20 01:46:05;;;;;;;22.53;16.80;;;;;;;10.89;100.00;96951.72;5074254;28;20200;-56
2022/10/20 01:48:33;;;;;;;23.63;18.80;;;;;;;10.93;100.00;96939.75;5092964;28;20172;-53
2022/10/20 01:51:00;;;;;;;22.47;18.23;;;;;;;10.96;100.00;96936.69;5092852;28;20169;-57
2022/10/20 01:53:26;;;;;;;24.57;19.27;;;;;;;11.01;100.00;96933.38;5092662;28;20181;-55
2022/10/20 01:55:53;;;;;;;27.03;18.97;;;;;;;10.95;100.00;96945.56;5092686;28;20351;-53
2022/10/20 01:58:28;;;;;;;23.90;19.33;;;;;;;11.00;100.00;96929.97;5091794;28;20698;-58
2022/10/20 02:00:58;;;;;;;24.53;18.80;;;;;;;10.98;100.00;96941.72;5092627;28;20590;-58
2022/10/20 02:03:47;;;;;;;23.97;18.40;;;;;;;11.05;100.00;96934.53;5091999;28;20664;-55
2022/10/20 02:06:30;;;;;;;25.30;18.00;;;;;;;10.98;100.00;96926.75;5092837;28;20192;-54
2022/10/20 02:09:00;;;;;;;24.10;18.57;;;;;;;10.96;100.00;96928.81;5092306;28;20668;-55
2022/10/20 02:11:39;;;;;;;24.97;18.80;;;;;;;11.00;100.00;96916.03;5092375;28;20196;-56
2022/10/20 02:14:08;;;;;;;23.83;20.83;;;;;;;10.99;100.00;96911.81;5092829;28;20267;-53
2022/10/20 02:16:44;;;;;;;28.47;22.07;;;;;;;10.94;100.00;96909.06;5091548;28;20501;-55
2022/10/20 02:19:13;;;;;;;29.23;22.67;;;;;;;10.95;100.00;96908.06;5087761;28;20182;-52
2022/10/20 02:21:38;;;;;;;27.23;22.67;;;;;;;10.98;100.00;96910.25;5092127;28;20204;-54
2022/10/20 02:24:07;;;;;;;30.37;22.73;;;;;;;10.97;100.00;96911.25;5092284;28;20224;-54
2022/10/20 02:26:38;;;;;;;28.03;23.17;;;;;;;10.94;100.00;96923.00;5092335;28;20232;-58
2022/10/20 02:29:15;;;;;;;28.87;22.03;;;;;;;10.92;100.00;96916.38;5092305;28;20272;-58
2022/10/20 02:31:43;;;;;;;28.53;23.60;;;;;;;10.84;100.00;96907.00;5092400;28;20251;-57
2022/10/20 02:34:09;;;;;;;32.13;24.07;;;;;;;10.80;100.00;96908.50;5092303;28;20653;-57
2022/10/20 02:36:38;;;;;;;35.87;24.73;;;;;;;10.86;100.00;96897.09;5073331;28;20200;-56
2022/10/20 02:39:03;;;;;;;30.80;24.50;;;;;;;10.84;100.00;96894.69;5090681;28;20181;-55
2022/10/20 02:41:30;;;;;;;30.77;22.70;;;;;;;10.77;100.00;96901.88;5093627;28;20545;-55
2022/10/20 02:43:55;;;;;;;29.67;22.57;;;;;;;10.82;100.00;96898.56;5073930;28;20676;-57
2022/10/20 02:46:21;;;;;;;26.13;20.33;;;;;;;10.86;100.00;96891.06;5091291;28;20278;-55
2022/10/20 02:48:46;;;;;;;27.73;20.23;;;;;;;10.83;100.00;96884.44;5093408;28;20544;-56
2022/10/20 02:51:12;;;;;;;28.23;21.23;;;;;;;10.87;100.00;96885.56;5086739;28;20195;-56
2022/10/20 02:53:37;;;;;;;31.10;21.37;;;;;;;10.85;100.00;96877.16;5075998;28;20589;-54
2022/10/20 02:56:03;;;;;;;27.47;20.87;;;;;;;10.90;100.00;96890.38;5091651;28;20208;-54
2022/10/20 02:58:29;;;;;;;26.30;21.73;;;;;;;10.96;100.00;96894.72;5094233;28;20177;-55
2022/10/20 03:00:54;;;;;;;27.83;21.70;;;;;;;10.97;100.00;96892.91;5089342;28;20170;-53
2022/10/20 03:03:19;;;;;;;25.70;20.87;;;;;;;10.95;100.00;96898.38;5075469;28;20684;-53
2022/10/20 03:05:46;;;;;;;28.80;19.80;;;;;;;10.96;100.00;96886.84;5088810;28;20168;-54
2022/10/20 03:08:12;;;;;;;31.33;20.90;;;;;;;10.97;100.00;96890.28;5079323;28;20219;-52
2022/10/20 03:10:38;;;;;;;27.13;20.60;;;;;;;10.98;100.00;96894.50;5075760;28;20169;-57
2022/10/20 03:13:06;;;;;;;26.50;19.63;;;;;;;10.94;100.00;96899.38;5075744;28;20191;-57
2022/10/20 03:15:31;;;;;;;29.63;20.53;;;;;;;10.89;100.00;96893.22;5076205;28;20181;-54
2022/10/20 03:17:57;;;;;;;25.63;20.97;;;;;;;10.85;100.00;96895.50;5089856;28;20734;-53
2022/10/20 03:20:22;;;;;;;28.13;20.40;;;;;;;10.85;100.00;96892.88;5076207;28;20481;-56
2022/10/20 03:22:48;;;;;;;25.50;22.30;;;;;;;10.83;100.00;96885.22;5076553;28;20594;-54
2022/10/20 03:25:13;;;;;;;24.50;21.03;;;;;;;10.75;100.00;96890.00;5075746;28;20242;-51
2022/10/20 03:27:38;;;;;;;32.30;20.20;;;;;;;10.74;100.00;96889.22;5075169;28;20193;-56
2022/10/20 03:30:05;;;;;;;28.03;20.70;;;;;;;10.67;100.00;96885.88;5075277;28;20264;-57
2022/10/20 03:32:31;;;;;;;29.10;20.33;;;;;;;10.60;100.00;96890.41;5087839;28;20267;-57
2022/10/20 03:34:56;;;;;;;29.50;20.77;;;;;;;10.63;100.00;96889.19;5090721;28;20260;-56
2022/10/20 03:37:22;;;;;;;27.03;19.87;;;;;;;10.74;100.00;96891.03;5094529;28;20209;-56
2022/10/20 03:39:47;;;;;;;27.53;21.40;;;;;;;10.74;100.00;96893.66;5094778;28;20173;-55
2022/10/20 03:42:13;;;;;;;39.53;21.83;;;;;;;10.66;100.00;96889.53;5077120;28;20370;-58
2022/10/20 03:44:38;;;;;;;31.97;21.07;;;;;;;10.74;100.00;96891.03;5076848;28;20194;-58
2022/10/20 03:47:04;;;;;;;25.20;20.53;;;;;;;10.65;100.00;96890.53;5086067;28;20644;-56
2022/10/20 03:49:31;;;;;;;32.53;22.40;;;;;;;10.67;100.00;96887.72;5094356;28;20176;-57
2022/10/20 03:51:58;;;;;;;30.77;21.87;;;;;;;10.71;100.00;96886.22;5091433;28;20173;-57
2022/10/20 03:54:24;;;;;;;29.30;21.27;;;;;;;10.77;100.00;96870.41;5094751;28;20169;-56
2022/10/20 03:56:49;;;;;;;30.37;22.77;;;;;;;10.83;100.00;96869.50;5092980;28;20294;-57
2022/10/20 03:59:14;;;;;;;32.23;21.70;;;;;;;10.84;100.00;96878.16;5094074;28;20570;-57
2022/10/20 04:01:44;;;;;;;29.40;22.93;;;;;;;10.74;100.00;96872.69;5094139;28;20161;-56
2022/10/20 04:04:10;;;;;;;30.53;22.00;;;;;;;10.78;100.00;96866.75;5077407;28;20658;-52
2022/10/20 04:06:35;;;;;;;28.20;20.30;;;;;;;10.82;100.00;96864.47;5083450;28;20250;-57
2022/10/20 04:09:01;;;;;;;29.53;21.13;;;;;;;10.82;100.00;96867.91;5074954;28;20224;-58
2022/10/20 04:11:26;;;;;;;28.93;21.90;;;;;;;10.85;100.00;96864.03;5074903;28;20191;-57
2022/10/20 04:13:52;;;;;;;31.87;24.63;;;;;;;10.85;100.00;96850.94;5074392;28;20173;-52
2022/10/20 04:16:17;;;;;;;32.27;25.63;;;;;;;10.89;100.00;96865.19;5089109;28;20204;-56
2022/10/20 04:18:43;;;;;;;30.87;24.63;;;;;;;10.88;100.00;96866.19;5074504;28;20213;-58
2022/10/20 04:21:08;;;;;;;29.80;23.53;;;;;;;10.89;100.00;96862.56;5091824;28;20175;-52
2022/10/20 04:23:34;;;;;;;29.07;23.10;;;;;;;10.84;100.00;96854.56;5094050;28;20253;-55
2022/10/20 04:26:05;;;;;;;30.53;24.47;;;;;;;10.79;100.00;96844.78;5086582;28;20195;-57
2022/10/20 04:28:31;;;;;;;33.07;24.23;;;;;;;10.74;100.00;96842.03;5093661;28;20179;-58
2022/10/20 04:30:59;;;;;;;31.30;22.33;;;;;;;10.76;100.00;96841.78;5079757;28;20177;-57
2022/10/20 04:33:24;;;;;;;32.10;22.60;;;;;;;10.77;100.00;96846.81;5074173;28;20744;-57
2022/10/20 04:35:58;;;;;;;29.60;22.83;;;;;;;10.78;100.00;96852.84;5073627;28;20272;-58
2022/10/20 04:38:24;;;;;;;30.73;21.53;;;;;;;10.81;100.00;96852.41;5091654;28;20175;-57
2022/10/20 04:40:54;;;;;;;34.03;23.03;;;;;;;10.78;100.00;96847.59;5079695;28;20173;-58
2022/10/20 04:43:20;;;;;;;30.50;20.67;;;;;;;10.68;100.00;96848.16;5071061;28;20232;-55
2022/10/20 04:45:45;;;;;;;29.90;21.97;;;;;;;10.66;100.00;96849.41;5073886;28;20170;-55
2022/10/20 04:48:10;;;;;;;31.43;21.07;;;;;;;10.68;100.00;96842.94;5078681;28;20181;-56
2022/10/20 04:50:36;;;;;;;29.20;21.53;;;;;;;10.71;100.00;96836.41;5085802;28;20168;-57
2022/10/20 04:53:01;;;;;;;32.03;21.80;;;;;;;10.63;100.00;96837.56;5091616;28;20190;-57
2022/10/20 04:55:26;;;;;;;30.23;21.37;;;;;;;10.69;100.00;96834.03;5093231;28;20221;-57
2022/10/20 04:57:52;;;;;;;28.63;20.53;;;;;;;10.66;100.00;96839.72;5093658;28;20329;-58
2022/10/20 05:00:17;;;;;;;28.47;20.93;;;;;;;10.76;100.00;96839.97;5093241;28;20204;-55
2022/10/20 05:02:43;;;;;;;31.00;20.27;;;;;;;10.81;100.00;96841.94;5078889;28;20174;-56
2022/10/20 05:05:08;;;;;;;28.70;20.50;;;;;;;10.78;100.00;96839.75;5072677;28;20204;-58
2022/10/20 05:07:33;;;;;;;30.23;20.07;;;;;;;10.76;100.00;96833.91;5073258;28;20304;-55
2022/10/20 05:09:59;;;;;;;28.93;21.07;;;;;;;10.76;100.00;96832.09;5073428;28;20178;-58
2022/10/20 05:12:24;;;;;;;25.83;20.97;;;;;;;10.81;100.00;96832.22;5084692;28;20183;-56
2022/10/20 05:14:50;;;;;;;31.77;21.33;;;;;;;10.81;100.00;96826.97;5078959;28;20189;-55
2022/10/20 05:17:15;;;;;;;32.10;21.87;;;;;;;10.76;100.00;96829.47;5071054;28;20204;-58
2022/10/20 05:19:40;;;;;;;29.23;20.97;;;;;;;10.66;100.00;96818.75;5073269;28;20201;-56
2022/10/20 05:22:06;;;;;;;30.00;21.23;;;;;;;10.73;100.00;96810.78;5063000;28;20178;-54
2022/10/20 05:24:31;;;;;;;27.27;20.63;;;;;;;10.78;100.00;96800.41;5074382;28;20253;-55
2022/10/20 05:26:57;;;;;;;30.93;21.30;;;;;;;10.69;100.00;96802.59;5093389;28;20207;-58
2022/10/20 05:29:22;;;;;;;27.03;20.70;;;;;;;10.61;100.00;96808.16;5093156;28;20189;-58
2022/10/20 05:31:47;;;;;;;29.80;20.90;;;;;;;10.61;100.00;96794.25;5083321;28;20172;-58
2022/10/20 05:34:13;;;;;;;40.03;20.60;;;;;;;10.64;100.00;96794.59;5056056;28;20219;-56
2022/10/20 05:36:38;;;;;;;28.50;20.97;;;;;;;10.58;100.00;96786.84;5073923;28;20535;-56
2022/10/20 05:39:04;;;;;;;30.47;22.43;;;;;;;10.49;100.00;96775.88;5072934;28;20294;-58
2022/10/20 05:44:01;;;;;;;33.13;22.57;;;;;;;10.47;100.00;96798.09;5089607;28;20260;-53
2022/10/20 05:46:31;;;;;;;32.93;21.80;;;;;;;10.39;100.00;96797.41;5088507;28;20208;-56
2022/10/20 05:48:59;;;;;;;31.00;23.97;;;;;;;10.40;100.00;96801.63;5093824;28;20165;-53
2022/10/20 05:51:28;;;;;;;29.23;21.77;;;;;;;10.48;100.00;96797.88;5093144;28;20169;-58
2022/10/20 05:53:55;;;;;;;25.63;21.20;;;;;;;10.49;100.00;96788.97;5092420;28;20229;-56
2022/10/20 05:56:21;;;;;;;30.00;22.17;;;;;;;10.41;100.00;96782.25;5074119;28;20261;-57
2022/10/20 05:58:47;;;;;;;26.77;21.20;;;;;;;10.45;100.00;96784.44;5092056;28;20683;-52
2022/10/20 06:01:17;;;;;;;27.10;20.83;;;;;;;10.50;100.00;96781.91;5092436;28;20226;-55
2022/10/20 06:03:50;;;;;;;26.57;21.23;;;;;;;10.53;100.00;96784.91;5092523;28;20192;-54
2022/10/20 06:06:16;;;;;;;28.03;21.27;;;;;;;10.62;100.00;96778.31;5092672;28;20203;-54
2022/10/20 06:08:42;;;;;;;24.33;21.03;;;;;;;10.59;100.00;96775.34;5092663;28;20600;-60
2022/10/20 06:11:10;;;;;;;25.67;20.90;;;;;;;10.58;100.00;96774.53;5092508;28;20263;-56
2022/10/20 06:13:35;;;;;;;26.13;20.17;;;;;;;10.60;100.00;96777.72;5091905;28;20200;-55
2022/10/20 06:16:03;;;;;;;24.80;19.90;;;;;;;10.61;100.00;96781.94;5091707;28;20617;-55
2022/10/20 06:18:28;;;;;;;25.43;20.37;;;;;;;10.70;100.00;96785.81;5092203;28;20532;-57
2022/10/20 06:21:16;;;;;;;23.37;19.47;;;;;;;10.81;100.00;96785.03;5092271;28;20181;-53
2022/10/20 06:23:41;;;;;;;27.07;19.23;;;;;;;10.91;100.00;96786.28;5091570;28;20192;-54
2022/10/20 06:26:09;;;;;;;20.97;18.57;;;;;;;10.85;100.00;96788.00;5092245;28;20203;-53
2022/10/20 06:28:37;;;;;;;23.17;19.80;;;;;;;10.92;100.00;96795.75;5092226;28;20931;-54
2022/10/20 06:31:14;;;;;;;23.23;17.70;;;;;;;10.91;100.00;96794.97;5092351;28;20176;-54
2022/10/20 06:33:40;;;;;;;18.63;16.47;;;;;;;10.86;100.00;96784.34;5092234;28;20261;-58
2022/10/20 06:36:07;;;;;;;18.67;16.37;;;;;;;10.95;100.00;96784.81;5074167;28;20211;-54
2022/10/20 06:38:33;;;;;;;21.30;17.33;;;;;;;11.00;100.00;96795.41;5092148;28;20203;-55
2022/10/20 06:41:02;;;;;;;17.67;15.50;;;;;;;11.15;100.00;96795.72;5074185;28;20644;-60
2022/10/20 06:43:28;;;;;;;17.23;14.93;;;;;;;11.19;100.00;96799.50;5081369;28;20720;-57
2022/10/20 06:45:58;;;;;;;16.90;15.10;;;;;;;11.26;100.00;96805.41;5091880;28;20194;-55
2022/10/20 06:48:24;;;;;;;17.33;14.77;;;;;;;11.35;100.00;96819.00;5075791;28;20554;-53
2022/10/20 06:50:55;;;;;;;15.80;14.23;;;;;;;11.27;100.00;96820.94;5088024;28;20201;-57
2022/10/20 06:53:21;;;;;;;15.17;13.57;;;;;;;11.36;100.00;96812.72;5090150;28;20168;-50
2022/10/20 06:55:55;;;;;;;16.80;14.93;;;;;;;11.31;100.00;96808.19;5089585;28;20234;-54
2022/10/20 06:58:20;;;;;;;15.93;14.30;;;;;;;11.52;100.00;96815.44;5072163;28;20188;-55
2022/10/20 07:00:46;;;;;;;19.67;17.67;;;;;;;12.93;100.00;96802.47;5090960;28;20181;-60
2022/10/20 07:03:11;;;;;;;23.10;21.03;;;;;;;13.06;100.00;96808.16;5091314;28;20185;-52
2022/10/20 07:05:36;;;;;;;18.33;16.80;;;;;;;12.56;100.00;96800.28;5079559;28;20256;-53
2022/10/20 07:08:02;;;;;;;16.57;15.07;;;;;;;12.32;100.00;96810.13;5091836;28;20208;-55
2022/10/20 07:10:27;;;;;;;17.70;16.20;;;;;;;12.19;100.00;96812.28;5085308;28;20226;-56
2022/10/20 07:12:53;;;;;;;18.30;16.53;;;;;;;12.01;100.00;96808.00;5090450;28;20185;-54
2022/10/20 07:15:19;;;;;;;22.27;20.17;;;;;;;12.04;100.00;96815.41;5091166;28;20180;-54
2022/10/20 07:17:44;;;;;;;21.60;19.17;;;;;;;12.06;100.00;96808.91;5089435;28;20295;-56
2022/10/20 07:20:10;;;;;;;22.13;19.90;;;;;;;12.06;100.00;96810.72;5075582;28;20169;-55
2022/10/20 07:22:36;;;;;;;19.77;17.80;;;;;;;12.16;100.00;96804.84;5091749;28;20593;-52
2022/10/20 07:25:05;;;;;;;20.30;18.67;;;;;;;12.09;100.00;96811.03;5091242;28;20193;-57
2022/10/20 07:27:30;;;;;;;22.83;18.07;;;;;;;12.11;100.00;96817.91;5091710;28;20232;-56
2022/10/20 07:29:56;;;;;;;19.30;17.50;;;;;;;12.07;100.00;96805.25;5076529;28;20212;-57
2022/10/20 07:32:21;;;;;;;18.20;16.63;;;;;;;12.07;100.00;96799.19;5095211;28;20507;-52
2022/10/20 07:34:46;;;;;;;18.27;16.77;;;;;;;12.18;100.00;96789.66;5094929;28;20176;-54
2022/10/20 07:37:12;;;;;;;16.57;15.27;;;;;;;12.30;100.00;96788.56;5095154;28;20346;-53
2022/10/20 07:39:37;;;;;;;20.17;18.47;;;;;;;12.32;100.00;96798.81;5094210;28;20181;-53
2022/10/20 07:42:03;;;;;;;22.07;20.47;;;;;;;12.54;100.00;96798.94;5062266;28;20230;-55
2022/10/20 07:44:28;;;;;;;20.97;19.40;;;;;;;12.71;100.00;96799.72;5051122;28;20190;-54
2022/10/20 07:46:54;;;;;;;20.17;18.10;;;;;;;12.92;100.00;96799.03;5058329;28;20243;-53
2022/10/20 07:49:19;;;;;;;22.60;21.10;;;;;;;13.14;100.00;96804.38;5066200;28;20173;-56
2022/10/20 07:51:44;;;;;;;37.10;34.57;;;;;;;13.25;100.00;96800.84;5063586;28;20189;-52
2022/10/20 07:54:10;;;;;;;40.50;37.87;;;;;;;13.21;100.00;96797.88;5062197;28;20250;-57
2022/10/20 07:56:42;;;;;;;43.83;41.13;;;;;;;13.38;100.00;96807.56;5072049;28;20204;-56
2022/10/20 07:59:08;;;;;;;25.13;23.33;;;;;;;13.56;100.00;96812.56;5051082;28;20272;-54
2022/10/20 08:01:34;;;;;;;18.17;16.73;;;;;;;13.21;100.00;96797.88;5061921;28;20205;-56
2022/10/20 08:04:00;;;;;;;14.53;13.53;;;;;;;13.33;100.00;96792.50;5061929;28;20197;-55
2022/10/20 08:06:25;;;;;;;16.23;15.03;;;;;;;13.50;100.00;96787.19;5074614;28;20622;-57
2022/10/20 08:08:51;;;;;;;16.53;15.13;;;;;;;13.54;100.00;96790.94;5073450;28;20196;-53
2022/10/20 08:11:17;;;;;;;15.97;14.63;;;;;;;13.55;100.00;96793.31;5071978;28;20173;-56
2022/10/20 08:13:43;;;;;;;14.70;13.60;;;;;;;13.66;100.00;96789.75;5060147;28;20186;-56
2022/10/20 08:16:11;;;;;;;15.57;14.47;;;;;;;13.89;100.00;96798.44;5072432;28;20201;-54
2022/10/20 08:18:36;;;;;;;17.20;15.90;;;;;;;13.94;100.00;96801.13;5074442;28;20177;-53
2022/10/20 08:21:28;;;;;;;22.63;20.80;;;;;;;14.08;100.00;96792.63;5066466;28;20303;-55
2022/10/20 08:23:53;;;;;;;13.50;12.50;;;;;;;14.24;100.00;96790.13;5054102;28;20301;-56
2022/10/20 08:26:22;;;;;;;19.53;10.00;;;;;;;14.33;100.00;96792.06;5073275;28;20658;-54
2022/10/20 08:28:48;;;;;;;12.47;11.23;;;;;;;14.28;100.00;96794.66;5057183;28;20181;-55
2022/10/20 08:31:14;;;;;;;14.07;12.13;;;;;;;14.40;100.00;96792.69;5054508;28;20593;-50
2022/10/20 08:33:39;;;;;;;16.73;14.93;;;;;;;14.41;100.00;96782.94;5071230;28;20181;-56
2022/10/20 08:36:08;;;;;;;12.70;10.10;;;;;;;14.39;100.00;96777.91;5073683;28;20208;-57
2022/10/20 08:38:35;;;;;;;11.07;10.00;;;;;;;14.27;100.00;96771.94;5072865;28;20588;-54
2022/10/20 08:41:02;;;;;;;10.60;9.70;;;;;;;14.14;100.00;96773.19;5073386;28;20181;-54
2022/10/20 08:43:29;;;;;;;10.13;9.33;;;;;;;14.01;100.00;96770.94;5077929;28;20332;-51
2022/10/20 08:45:55;;;;;;;11.80;10.73;;;;;;;14.10;100.00;96787.88;5079215;28;20187;-53
2022/10/20 08:48:28;;;;;;;10.87;10.00;;;;;;;14.28;100.00;96799.91;5093769;28;20169;-57
2022/10/20 08:50:54;;;;;;;11.07;9.87;;;;;;;14.51;100.00;96797.00;5083691;28;20231;-55
2022/10/20 08:53:22;;;;;;;13.23;12.13;;;;;;;14.68;100.00;96794.25;5074539;28;20539;-56
2022/10/20 08:55:49;;;;;;;13.10;11.90;;;;;;;14.69;100.00;96787.13;5089107;28;20215;-52
2022/10/20 08:58:20;;;;;;;14.73;13.47;;;;;;;14.88;100.00;96797.03;5082723;28;20175;-51
2022/10/20 09:00:49;;;;;;;16.80;15.57;;;;;;;14.72;100.00;96805.88;5081406;28;20166;-54
2022/10/20 09:03:26;;;;;;;13.67;12.67;;;;;;;14.69;100.00;96803.75;5087782;28;20179;-54
2022/10/20 09:06:07;;;;;;;14.87;13.80;;;;;;;14.73;100.00;96806.66;5073548;28;20223;-54
2022/10/20 09:08:36;;;;;;;12.37;11.47;;;;;;;14.81;100.00;96804.38;5073526;28;20242;-56
2022/10/20 09:11:03;;;;;;;11.53;10.63;;;;;;;14.95;100.00;96804.72;5093816;28;20211;-53
2022/10/20 09:13:31;;;;;;;11.97;11.03;;;;;;;15.02;100.00;96802.66;5085864;28;20184;-52
2022/10/20 09:16:19;;;;;;;11.37;10.47;;;;;;;15.31;100.00;96803.13;5073229;28;20264;-59
2022/10/20 09:18:51;;;;;;;10.80;10.00;;;;;;;15.16;100.00;96795.88;5093537;28;20227;-56
2022/10/20 09:21:20;;;;;;;12.23;11.33;;;;;;;15.20;100.00;96802.25;5075220;28;20181;-58
2022/10/20 09:23:59;;;;;;;13.93;12.97;;;;;;;15.25;100.00;96797.00;5077475;28;20200;-57
2022/10/20 09:26:35;;;;;;;29.33;27.13;;;;;;;15.44;100.00;96788.63;5090755;28;20204;-57
2022/10/20 09:29:07;;;;;;;30.43;28.40;;;;;;;14.85;100.00;96807.28;5091544;28;20176;-57
2022/10/20 09:31:45;;;;;;;23.73;22.03;;;;;;;15.08;100.00;96803.50;5081746;28;20280;-57
2022/10/20 09:34:25;;;;;;;12.97;12.07;;;;;;;15.02;100.00;96807.16;5092387;28;20176;-57
2022/10/20 09:36:56;;;;;;;11.70;10.90;;;;;;;15.22;100.00;96808.06;5084398;28;20197;-57
2022/10/20 09:39:26;;;;;;;16.20;14.80;;;;;;;15.23;100.00;96822.88;5072852;28;20178;-57
2022/10/20 09:42:04;;;;;;;13.77;12.63;;;;;;;15.06;100.00;96813.50;5073009;28;20182;-57
2022/10/20 09:44:34;;;;;;;15.57;12.07;;;;;;;15.10;100.00;96815.38;5070507;28;20217;-53
2022/10/20 09:47:01;;;;;;;19.70;18.33;;;;;;;15.17;100.00;96813.31;5080582;28;20250;-54
2022/10/20 09:49:29;;;;;;;21.70;20.30;;;;;;;15.06;100.00;96814.31;5088653;28;20585;-58
2022/10/20 09:51:55;;;;;;;27.37;25.60;;;;;;;15.36;100.00;96826.91;5092469;28;20844;-53
2022/10/20 09:54:24;;;;;;;44.03;41.27;;;;;;;15.46;100.00;96831.44;5090784;28;20268;-58
2022/10/20 09:56:51;;;;;;;41.67;39.00;;;;;;;15.44;100.00;96830.91;5092193;28;20204;-56
2022/10/20 09:59:48;;;;;;;38.73;36.40;;;;;;;15.46;100.00;96819.03;5086738;28;20622;-57
2022/10/20 10:02:14;;;;;;;49.00;46.13;;;;;;;15.49;100.00;96828.31;5079864;28;20739;-57
2022/10/20 10:04:45;;;;;;;45.40;42.60;;;;;;;15.55;100.00;96830.72;5084386;28;20227;-55
2022/10/20 10:07:25;;;;;;;34.57;32.47;;;;;;;15.37;100.00;96831.94;5092039;28;20247;-57
2022/10/20 10:10:22;;;;;;;31.13;29.02;;;;;;;15.42;100.00;96822.44;5081485;28;20544;-57
2022/10/20 10:12:53;;;;;;;49.00;46.10;;;;;;;15.93;100.00;96834.88;5083645;28;20188;-57
2022/10/20 10:15:22;;;;;;;53.53;50.23;;;;;;;16.16;100.00;96831.00;5079259;28;20184;-56
2022/10/20 10:17:49;;;;;;;30.90;28.70;;;;;;;16.02;100.00;96837.81;5086069;28;20200;-55
2022/10/20 10:20:15;;;;;;;32.93;30.80;;;;;;;15.89;100.00;96827.69;5087939;28;20207;-58
2022/10/20 10:22:41;;;;;;;31.75;29.77;;;;;;;16.39;100.00;96822.56;5089416;28;20629;-57
2022/10/20 10:25:16;;;;;;;30.58;28.52;;;;;;;16.47;100.00;96821.25;5088561;28;20196;-56
2022/10/20 10:28:02;;;;;;;23.98;22.42;;;;;;;16.54;100.00;96816.50;5090520;28;20203;-55
2022/10/20 10:30:30;;;;;;;20.13;18.63;;;;;;;16.46;100.00;96823.09;5088794;28;20590;-58
2022/10/20 10:32:56;;;;;;;20.53;19.23;;;;;;;16.59;100.00;96824.47;5082195;28;20351;-57
2022/10/20 10:35:38;;;;;;;14.40;13.35;;;;;;;16.61;100.00;96827.63;5089704;28;20177;-57
2022/10/20 10:38:05;;;;;;;14.52;13.13;;;;;;;16.85;100.00;96833.22;5076232;28;20214;-57
2022/10/20 10:40:40;;;;;;;30.50;28.70;;;;;;;16.83;99.86;96835.34;5091490;28;20172;-57
2022/10/20 10:43:44;;;;;;;20.88;19.55;;;;;;;16.84;99.39;96842.22;5074867;28;20231;-57
2022/10/20 10:46:19;;;;;;;40.13;37.75;;;;;;;16.80;99.35;96833.22;5090923;28;20219;-57
2022/10/20 10:49:05;;;;;;;26.70;24.75;;;;;;;17.42;95.78;96833.69;5076884;28;20179;-57
2022/10/20 10:51:58;;;;;;;23.90;22.42;;;;;;;17.07;97.84;96835.59;5088967;28;20169;-56
2022/10/20 10:54:52;;;;;;;19.85;18.38;;;;;;;17.11;97.14;96828.72;5089721;28;20238;-55
2022/10/20 10:57:29;;;;;;;24.90;23.05;;;;;;;17.14;97.16;96823.66;5091574;28;20200;-57
2022/10/20 10:59:58;;;;;;;29.27;27.48;;;;;;;16.78;99.66;96825.53;5090359;28;20210;-54
2022/10/20 11:02:29;;;;;;;37.90;35.55;;;;;;;16.76;99.93;96809.13;5087081;28;20687;-56
2022/10/20 11:05:22;;;;;;;18.50;17.00;;;;;;;16.46;100.00;96807.22;5095532;28;20672;-55
2022/10/20 11:07:53;;;;;;;145.52;137.27;;;;;;;16.65;100.00;96785.59;5095367;28;20223;-58
2022/10/20 11:10:46;;;;;;;94.50;89.07;;;;;;;16.27;100.00;96790.28;5096079;28;20181;-57
2022/10/20 11:13:27;;;;;;;70.47;66.60;;;;;;;16.16;100.00;96793.97;5071799;28;20203;-58
2022/10/20 11:16:18;;;;;;;48.70;45.70;;;;;;;16.54;100.00;96790.84;5093975;28;20609;-57
2022/10/20 11:19:23;;;;;;;37.25;34.92;;;;;;;16.45;100.00;96784.47;5088722;28;20195;-58
2022/10/20 11:22:14;;;;;;;11.52;10.52;;;;;;;16.44;100.00;96784.75;5080104;28;20192;-59